sensor_id;sensor_type;location;lat;lon;timestamp;temperature;humidity
67893;DHT22;54688;52.376;16.744;2023-03-23T00:02:23;9;74.9
67893;DHT22;54688;52.376;16.744;2023-03-23T00:05:25;9;75.4
67893;DHT22;54688;52.376;16.744;2023-03-23T00:08:27;8.9;75.9
67893;DHT22;54688;52.376;16.744;2023-03-23T00:11:30;8.8;76.6
67893;DHT22;54688;52.376;16.744;2023-03-23T00:14:33;8.7;76.8
67893;DHT22;54688;52.376;16.744;2023-03-23T00:17:35;8.6;76.8
67893;DHT22;54688;52.376;16.744;2023-03-23T00:20:37;8.6;76.6
67893;DHT22;54688;52.376;16.744;2023-03-23T00:23:40;8.5;76.9
67893;DHT22;54688;52.376;16.744;2023-03-23T00:26:43;8.5;77.2
67893;DHT22;54688;52.376;16.744;2023-03-23T00:29:47;8.5;77.3
67893;DHT22;54688;52.376;16.744;2023-03-23T00:32:50;8.4;77.3
67893;DHT22;54688;52.376;16.744;2023-03-23T00:35:53;8.4;77.1
67893;DHT22;54688;52.376;16.744;2023-03-23T00:38:56;8.4;77.6
67893;DHT22;54688;52.376;16.744;2023-03-23T00:41:57;8.3;77.3
67893;DHT22;54688;52.376;16.744;2023-03-23T00:45:00;8.3;77.7
67893;DHT22;54688;52.376;16.744;2023-03-23T00:48:02;8.3;78.1
67893;DHT22;54688;52.376;16.744;2023-03-23T00:51:05;8.2;78.4
67893;DHT22;54688;52.376;16.744;2023-03-23T00:54:10;8.1;78.8
67893;DHT22;54688;52.376;16.744;2023-03-23T00:57:13;8.1;78.9
67893;DHT22;54688;52.376;16.744;2023-03-23T01:00:15;8.1;79.2
67893;DHT22;54688;52.376;16.744;2023-03-23T01:03:18;8;79.3
67893;DHT22;54688;52.376;16.744;2023-03-23T01:06:20;8;79.4
67893;DHT22;54688;52.376;16.744;2023-03-23T01:09:22;8;79.4
67893;DHT22;54688;52.376;16.744;2023-03-23T01:12:26;8;79.4
67893;DHT22;54688;52.376;16.744;2023-03-23T01:15:28;7.9;79.4
67893;DHT22;54688;52.376;16.744;2023-03-23T01:18:31;7.9;79.7
67893;DHT22;54688;52.376;16.744;2023-03-23T01:21:32;7.9;80
67893;DHT22;54688;52.376;16.744;2023-03-23T01:24:35;7.8;80
67893;DHT22;54688;52.376;16.744;2023-03-23T01:27:37;7.8;79.9
67893;DHT22;54688;52.376;16.744;2023-03-23T01:33:40;7.8;80.2
67893;DHT22;54688;52.376;16.744;2023-03-23T01:36:43;7.8;80.1
67893;DHT22;54688;52.376;16.744;2023-03-23T01:39:44;7.8;80.2
67893;DHT22;54688;52.376;16.744;2023-03-23T01:42:47;7.9;80.2
67893;DHT22;54688;52.376;16.744;2023-03-23T01:45:49;7.8;80.2
67893;DHT22;54688;52.376;16.744;2023-03-23T01:48:51;7.8;80.1
67893;DHT22;54688;52.376;16.744;2023-03-23T01:51:54;7.8;80
67893;DHT22;54688;52.376;16.744;2023-03-23T01:54:58;7.8;79.8
67893;DHT22;54688;52.376;16.744;2023-03-23T01:58:01;7.8;79.8
67893;DHT22;54688;52.376;16.744;2023-03-23T02:01:04;7.7;79.7
67893;DHT22;54688;52.376;16.744;2023-03-23T02:04:09;7.7;80
67893;DHT22;54688;52.376;16.744;2023-03-23T02:07:11;7.7;80.1
67893;DHT22;54688;52.376;16.744;2023-03-23T02:10:14;7.7;80.1
67893;DHT22;54688;52.376;16.744;2023-03-23T02:13:16;7.7;80.2
67893;DHT22;54688;52.376;16.744;2023-03-23T02:16:21;7.6;80.2
67893;DHT22;54688;52.376;16.744;2023-03-23T02:19:35;7.6;80.2
67893;DHT22;54688;52.376;16.744;2023-03-23T02:22:55;7.5;80
67893;DHT22;54688;52.376;16.744;2023-03-23T02:26:12;7.5;80.1
67893;DHT22;54688;52.376;16.744;2023-03-23T02:29:32;7.4;80.3
67893;DHT22;54688;52.376;16.744;2023-03-23T02:32:53;7.4;80.3
67893;DHT22;54688;52.376;16.744;2023-03-23T02:36:14;7.4;80.2
67893;DHT22;54688;52.376;16.744;2023-03-23T02:42:23;7.4;80.5
67893;DHT22;54688;52.376;16.744;2023-03-23T02:45:29;7.4;80.6
67893;DHT22;54688;52.376;16.744;2023-03-23T02:48:34;7.4;80.5
67893;DHT22;54688;52.376;16.744;2023-03-23T02:51:38;7.4;80.2
67893;DHT22;54688;52.376;16.744;2023-03-23T02:54:41;7.4;80.8
67893;DHT22;54688;52.376;16.744;2023-03-23T02:57:45;7.4;80
67893;DHT22;54688;52.376;16.744;2023-03-23T03:03:47;7.5;80.1
67893;DHT22;54688;52.376;16.744;2023-03-23T03:06:53;7.6;80
67893;DHT22;54688;52.376;16.744;2023-03-23T03:10:07;7.6;79.8
67893;DHT22;54688;52.376;16.744;2023-03-23T03:13:14;7.8;79.5
67893;DHT22;54688;52.376;16.744;2023-03-23T03:16:26;7.9;79.2
67893;DHT22;54688;52.376;16.744;2023-03-23T03:19:33;7.9;78.7
67893;DHT22;54688;52.376;16.744;2023-03-23T03:22:40;8.1;78.3
67893;DHT22;54688;52.376;16.744;2023-03-23T03:25:44;8.1;77.9
67893;DHT22;54688;52.376;16.744;2023-03-23T03:28:47;8.1;77.6
67893;DHT22;54688;52.376;16.744;2023-03-23T03:31:51;8.1;77.5
67893;DHT22;54688;52.376;16.744;2023-03-23T03:34:55;8.1;77.3
67893;DHT22;54688;52.376;16.744;2023-03-23T03:37:57;8.1;77.3
67893;DHT22;54688;52.376;16.744;2023-03-23T03:41:07;8.2;77.3
67893;DHT22;54688;52.376;16.744;2023-03-23T03:44:09;8.2;77.3
67893;DHT22;54688;52.376;16.744;2023-03-23T03:47:11;8.2;77.3
67893;DHT22;54688;52.376;16.744;2023-03-23T03:50:13;8.2;77.3
67893;DHT22;54688;52.376;16.744;2023-03-23T03:53:15;8.2;77.3
67893;DHT22;54688;52.376;16.744;2023-03-23T03:56:18;8.2;77
67893;DHT22;54688;52.376;16.744;2023-03-23T03:59:20;8.2;76.9
67893;DHT22;54688;52.376;16.744;2023-03-23T04:02:22;8.3;76.9
67893;DHT22;54688;52.376;16.744;2023-03-23T04:05:25;8.3;76.9
67893;DHT22;54688;52.376;16.744;2023-03-23T04:11:26;8.4;76.4
67893;DHT22;54688;52.376;16.744;2023-03-23T04:14:28;8.4;76.2
67893;DHT22;54688;52.376;16.744;2023-03-23T04:17:30;8.5;76.3
67893;DHT22;54688;52.376;16.744;2023-03-23T04:20:33;8.4;76.3
67893;DHT22;54688;52.376;16.744;2023-03-23T04:23:36;8.5;76.2
67893;DHT22;54688;52.376;16.744;2023-03-23T04:26:39;8.5;75.7
67893;DHT22;54688;52.376;16.744;2023-03-23T04:29:41;8.5;75.6
67893;DHT22;54688;52.376;16.744;2023-03-23T04:32:42;8.6;75.5
67893;DHT22;54688;52.376;16.744;2023-03-23T04:35:46;8.6;75
67893;DHT22;54688;52.376;16.744;2023-03-23T04:38:48;8.7;74.7
67893;DHT22;54688;52.376;16.744;2023-03-23T04:41:52;8.7;74.6
67893;DHT22;54688;52.376;16.744;2023-03-23T04:44:54;8.7;74.3
67893;DHT22;54688;52.376;16.744;2023-03-23T04:47:57;8.8;74.3
67893;DHT22;54688;52.376;16.744;2023-03-23T04:51:00;8.8;74
67893;DHT22;54688;52.376;16.744;2023-03-23T04:54:02;8.8;73.8
67893;DHT22;54688;52.376;16.744;2023-03-23T05:03:03;8.9;73.5
67893;DHT22;54688;52.376;16.744;2023-03-23T05:06:06;8.9;73
67893;DHT22;54688;52.376;16.744;2023-03-23T05:09:08;9;73.1
67893;DHT22;54688;52.376;16.744;2023-03-23T05:12:10;9;72.9
67893;DHT22;54688;52.376;16.744;2023-03-23T05:15:13;9.1;72.9
67893;DHT22;54688;52.376;16.744;2023-03-23T05:18:16;9.1;72.7
67893;DHT22;54688;52.376;16.744;2023-03-23T05:21:18;9.1;72.9
67893;DHT22;54688;52.376;16.744;2023-03-23T05:24:20;9.2;72.4
67893;DHT22;54688;52.376;16.744;2023-03-23T05:27:22;9.2;72.3
67893;DHT22;54688;52.376;16.744;2023-03-23T05:30:24;9.3;71.9
67893;DHT22;54688;52.376;16.744;2023-03-23T05:33:28;9.3;71.8
67893;DHT22;54688;52.376;16.744;2023-03-23T05:36:32;9.4;71.5
67893;DHT22;54688;52.376;16.744;2023-03-23T05:39:35;9.4;71.4
67893;DHT22;54688;52.376;16.744;2023-03-23T05:42:37;9.5;71.2
67893;DHT22;54688;52.376;16.744;2023-03-23T05:45:39;9.6;70.8
67893;DHT22;54688;52.376;16.744;2023-03-23T05:48:41;9.6;70.5
67893;DHT22;54688;52.376;16.744;2023-03-23T05:51:44;9.7;70.4
67893;DHT22;54688;52.376;16.744;2023-03-23T05:54:47;9.8;70.2
67893;DHT22;54688;52.376;16.744;2023-03-23T05:57:49;9.8;69.9
67893;DHT22;54688;52.376;16.744;2023-03-23T06:00:52;9.9;70.8
67893;DHT22;54688;52.376;16.744;2023-03-23T06:03:54;9.9;69.7
67893;DHT22;54688;52.376;16.744;2023-03-23T06:06:56;10;69.8
67893;DHT22;54688;52.376;16.744;2023-03-23T06:09:59;10.1;69.7
67893;DHT22;54688;52.376;16.744;2023-03-23T06:13:01;10.1;68.8
67893;DHT22;54688;52.376;16.744;2023-03-23T06:16:03;10.2;68.9
67893;DHT22;54688;52.376;16.744;2023-03-23T06:19:06;10.3;69.6
67893;DHT22;54688;52.376;16.744;2023-03-23T06:22:08;10.2;70.2
67893;DHT22;54688;52.376;16.744;2023-03-23T06:25:10;10.2;70.2
67893;DHT22;54688;52.376;16.744;2023-03-23T06:28:12;10.2;70.4
67893;DHT22;54688;52.376;16.744;2023-03-23T06:31:14;10.2;70.2
67893;DHT22;54688;52.376;16.744;2023-03-23T06:34:16;10.2;69.9
67893;DHT22;54688;52.376;16.744;2023-03-23T06:37:19;10.3;69.7
67893;DHT22;54688;52.376;16.744;2023-03-23T06:40:20;10.3;69.5
67893;DHT22;54688;52.376;16.744;2023-03-23T06:43:22;10.3;69.5
67893;DHT22;54688;52.376;16.744;2023-03-23T06:46:25;10.4;69.1
67893;DHT22;54688;52.376;16.744;2023-03-23T06:49:28;10.5;69
67893;DHT22;54688;52.376;16.744;2023-03-23T06:52:30;10.6;69
67893;DHT22;54688;52.376;16.744;2023-03-23T06:55:32;10.7;68.7
67893;DHT22;54688;52.376;16.744;2023-03-23T06:58:34;10.9;68
67893;DHT22;54688;52.376;16.744;2023-03-23T07:01:36;11.1;66.6
67893;DHT22;54688;52.376;16.744;2023-03-23T07:04:39;11.3;66.4
67893;DHT22;54688;52.376;16.744;2023-03-23T07:07:41;11.5;65.8
67893;DHT22;54688;52.376;16.744;2023-03-23T07:10:43;11.6;65
67893;DHT22;54688;52.376;16.744;2023-03-23T07:13:45;11.7;64.6
67893;DHT22;54688;52.376;16.744;2023-03-23T07:16:47;11.7;64.4
67893;DHT22;54688;52.376;16.744;2023-03-23T07:19:49;11.9;63.7
67893;DHT22;54688;52.376;16.744;2023-03-23T07:22:53;12;63.7
67893;DHT22;54688;52.376;16.744;2023-03-23T07:25:55;12.1;63
67893;DHT22;54688;52.376;16.744;2023-03-23T07:28:57;12.2;63
67893;DHT22;54688;52.376;16.744;2023-03-23T07:31:59;12.3;62.1
67893;DHT22;54688;52.376;16.744;2023-03-23T07:35:01;12.5;61.3
67893;DHT22;54688;52.376;16.744;2023-03-23T07:38:03;12.5;60.7
67893;DHT22;54688;52.376;16.744;2023-03-23T07:41:06;12.6;60.1
67893;DHT22;54688;52.376;16.744;2023-03-23T07:44:09;12.6;60.4
67893;DHT22;54688;52.376;16.744;2023-03-23T07:50:10;12.7;59.1
67893;DHT22;54688;52.376;16.744;2023-03-23T07:53:12;12.7;59.6
67893;DHT22;54688;52.376;16.744;2023-03-23T07:56:15;12.7;59.4
67893;DHT22;54688;52.376;16.744;2023-03-23T07:59:17;12.8;59.3
67893;DHT22;54688;52.376;16.744;2023-03-23T08:02:19;12.8;59.4
67893;DHT22;54688;52.376;16.744;2023-03-23T08:05:21;12.8;59.3
67893;DHT22;54688;52.376;16.744;2023-03-23T08:08:23;12.9;58.8
67893;DHT22;54688;52.376;16.744;2023-03-23T08:11:25;12.9;58.8
67893;DHT22;54688;52.376;16.744;2023-03-23T08:14:27;13;58.1
67893;DHT22;54688;52.376;16.744;2023-03-23T08:17:29;13.1;58.6
67893;DHT22;54688;52.376;16.744;2023-03-23T08:20:32;13.1;58.8
67893;DHT22;54688;52.376;16.744;2023-03-23T08:23:33;13.1;58.6
67893;DHT22;54688;52.376;16.744;2023-03-23T08:26:36;13.2;58.3
67893;DHT22;54688;52.376;16.744;2023-03-23T08:29:38;13.3;58.1
67893;DHT22;54688;52.376;16.744;2023-03-23T08:32:41;13.3;58.5
67893;DHT22;54688;52.376;16.744;2023-03-23T08:35:43;13.4;58.2
67893;DHT22;54688;52.376;16.744;2023-03-23T08:38:46;13.5;57.8
67893;DHT22;54688;52.376;16.744;2023-03-23T08:41:48;13.5;58.2
67893;DHT22;54688;52.376;16.744;2023-03-23T08:44:51;13.6;58.1
67893;DHT22;54688;52.376;16.744;2023-03-23T08:47:53;13.6;57.3
67893;DHT22;54688;52.376;16.744;2023-03-23T08:50:56;13.7;57
67893;DHT22;54688;52.376;16.744;2023-03-23T08:53:58;13.8;57.3
67893;DHT22;54688;52.376;16.744;2023-03-23T08:57:01;13.9;56.9
67893;DHT22;54688;52.376;16.744;2023-03-23T09:00:07;14;56.9
67893;DHT22;54688;52.376;16.744;2023-03-23T09:03:10;14.1;57.2
67893;DHT22;54688;52.376;16.744;2023-03-23T09:06:13;14.2;56.1
67893;DHT22;54688;52.376;16.744;2023-03-23T09:09:14;14.2;56
67893;DHT22;54688;52.376;16.744;2023-03-23T09:12:16;14.2;55.7
67893;DHT22;54688;52.376;16.744;2023-03-23T09:15:19;14.2;55.5
67893;DHT22;54688;52.376;16.744;2023-03-23T09:18:21;14.4;56.4
67893;DHT22;54688;52.376;16.744;2023-03-23T09:21:24;14.6;55.9
67893;DHT22;54688;52.376;16.744;2023-03-23T09:24:27;14.8;54
67893;DHT22;54688;52.376;16.744;2023-03-23T09:27:29;14.9;53.9
67893;DHT22;54688;52.376;16.744;2023-03-23T09:30:31;15;55
67893;DHT22;54688;52.376;16.744;2023-03-23T09:33:35;15;53.5
67893;DHT22;54688;52.376;16.744;2023-03-23T09:36:37;15;52.8
67893;DHT22;54688;52.376;16.744;2023-03-23T09:39:40;15.1;52.9
67893;DHT22;54688;52.376;16.744;2023-03-23T09:42:47;15;53.1
67893;DHT22;54688;52.376;16.744;2023-03-23T09:46:00;15.1;52.5
67893;DHT22;54688;52.376;16.744;2023-03-23T09:49:11;15;53.1
67893;DHT22;54688;52.376;16.744;2023-03-23T09:52:17;14.9;52.7
67893;DHT22;54688;52.376;16.744;2023-03-23T09:55:20;14.7;52.9
67893;DHT22;54688;52.376;16.744;2023-03-23T09:58:24;14.6;53.6
67893;DHT22;54688;52.376;16.744;2023-03-23T10:01:31;14.4;53.6
67893;DHT22;54688;52.376;16.744;2023-03-23T10:04:37;14.2;53.6
67893;DHT22;54688;52.376;16.744;2023-03-23T10:07:42;14.1;54.5
67893;DHT22;54688;52.376;16.744;2023-03-23T10:10:46;13.9;56.1
67893;DHT22;54688;52.376;16.744;2023-03-23T10:13:58;13.7;56.4
67893;DHT22;54688;52.376;16.744;2023-03-23T10:17:12;13.6;56.1
67893;DHT22;54688;52.376;16.744;2023-03-23T10:20:19;13.5;58.4
67893;DHT22;54688;52.376;16.744;2023-03-23T10:23:42;13.4;60.1
67893;DHT22;54688;52.376;16.744;2023-03-23T10:27:06;13.3;59.4
67893;DHT22;54688;52.376;16.744;2023-03-23T10:30:20;13.2;61.6
67893;DHT22;54688;52.376;16.744;2023-03-23T10:33:28;13.1;63
67893;DHT22;54688;52.376;16.744;2023-03-23T10:36:35;13.1;64.3
67893;DHT22;54688;52.376;16.744;2023-03-23T10:39:43;13;64
67893;DHT22;54688;52.376;16.744;2023-03-23T10:42:50;13.1;64.6
67893;DHT22;54688;52.376;16.744;2023-03-23T10:45:55;13.1;65.3
67893;DHT22;54688;52.376;16.744;2023-03-23T10:49:03;13.1;64.7
67893;DHT22;54688;52.376;16.744;2023-03-23T10:52:13;13.1;63.3
67893;DHT22;54688;52.376;16.744;2023-03-23T10:55:34;13.2;62.7
67893;DHT22;54688;52.376;16.744;2023-03-23T10:58:38;13.4;62.5
67893;DHT22;54688;52.376;16.744;2023-03-23T11:01:41;13.5;61.9
67893;DHT22;54688;52.376;16.744;2023-03-23T11:04:46;13.6;60.6
67893;DHT22;54688;52.376;16.744;2023-03-23T11:07:56;13.6;60.6
67893;DHT22;54688;52.376;16.744;2023-03-23T11:11:07;13.7;59.8
67893;DHT22;54688;52.376;16.744;2023-03-23T11:14:16;13.7;60.1
67893;DHT22;54688;52.376;16.744;2023-03-23T11:17:20;13.8;60.2
67893;DHT22;54688;52.376;16.744;2023-03-23T11:20:23;14;59.7
67893;DHT22;54688;52.376;16.744;2023-03-23T11:23:27;14;58.8
67893;DHT22;54688;52.376;16.744;2023-03-23T11:26:30;14.2;59
67893;DHT22;54688;52.376;16.744;2023-03-23T11:29:34;14.3;58
67893;DHT22;54688;52.376;16.744;2023-03-23T11:32:42;14.4;58.1
67893;DHT22;54688;52.376;16.744;2023-03-23T11:35:44;14.4;58.5
67893;DHT22;54688;52.376;16.744;2023-03-23T11:38:47;14.5;58
67893;DHT22;54688;52.376;16.744;2023-03-23T11:41:50;14.5;58
67893;DHT22;54688;52.376;16.744;2023-03-23T11:44:52;14.5;58.4
67893;DHT22;54688;52.376;16.744;2023-03-23T11:47:56;14.5;58.4
67893;DHT22;54688;52.376;16.744;2023-03-23T11:51:05;14.5;59.4
67893;DHT22;54688;52.376;16.744;2023-03-23T11:57:09;14.4;58.6
67893;DHT22;54688;52.376;16.744;2023-03-23T12:00:14;14.4;59.1
67893;DHT22;54688;52.376;16.744;2023-03-23T12:03:17;14.5;59.2
67893;DHT22;54688;52.376;16.744;2023-03-23T12:06:22;14.5;58.9
67893;DHT22;54688;52.376;16.744;2023-03-23T12:09:33;14.5;59.3
67893;DHT22;54688;52.376;16.744;2023-03-23T12:12:44;14.6;59
67893;DHT22;54688;52.376;16.744;2023-03-23T12:15:54;14.7;57.6
67893;DHT22;54688;52.376;16.744;2023-03-23T12:19:03;14.8;59.4
67893;DHT22;54688;52.376;16.744;2023-03-23T12:22:19;14.8;58.2
67893;DHT22;54688;52.376;16.744;2023-03-23T12:25:38;14.8;57.2
67893;DHT22;54688;52.376;16.744;2023-03-23T12:28:52;14.8;58.2
67893;DHT22;54688;52.376;16.744;2023-03-23T12:32:25;14.7;57.8
67893;DHT22;54688;52.376;16.744;2023-03-23T12:35:34;14.7;58.2
67893;DHT22;54688;52.376;16.744;2023-03-23T12:39:04;14.6;59.3
67893;DHT22;54688;52.376;16.744;2023-03-23T12:42:16;14.6;57.8
67893;DHT22;54688;52.376;16.744;2023-03-23T12:48:28;14.5;58.3
67893;DHT22;54688;52.376;16.744;2023-03-23T12:51:34;14.5;58.4
67893;DHT22;54688;52.376;16.744;2023-03-23T12:54:42;14.5;58.8
67893;DHT22;54688;52.376;16.744;2023-03-23T12:57:51;14.5;58.3
67893;DHT22;54688;52.376;16.744;2023-03-23T13:00:59;14.5;58.4
67893;DHT22;54688;52.376;16.744;2023-03-23T13:04:05;14.5;58.6
67893;DHT22;54688;52.376;16.744;2023-03-23T13:07:12;14.5;58.7
67893;DHT22;54688;52.376;16.744;2023-03-23T13:10:19;14.5;59
67893;DHT22;54688;52.376;16.744;2023-03-23T13:13:24;14.6;58.8
67893;DHT22;54688;52.376;16.744;2023-03-23T13:16:29;14.6;58.1
67893;DHT22;54688;52.376;16.744;2023-03-23T13:19:44;14.7;58.2
67893;DHT22;54688;52.376;16.744;2023-03-23T13:23:00;14.7;58.7
67893;DHT22;54688;52.376;16.744;2023-03-23T13:26:07;14.9;58.2
67893;DHT22;54688;52.376;16.744;2023-03-23T13:29:12;14.9;58.1
67893;DHT22;54688;52.376;16.744;2023-03-23T13:32:15;15;58.7
67893;DHT22;54688;52.376;16.744;2023-03-23T13:35:21;15.1;57.1
67893;DHT22;54688;52.376;16.744;2023-03-23T13:38:24;15.1;57.6
67893;DHT22;54688;52.376;16.744;2023-03-23T13:41:27;15.1;57.7
67893;DHT22;54688;52.376;16.744;2023-03-23T13:44:40;15.1;58.2
67893;DHT22;54688;52.376;16.744;2023-03-23T13:47:44;15.1;57.6
67893;DHT22;54688;52.376;16.744;2023-03-23T13:50:49;15.1;57.6
67893;DHT22;54688;52.376;16.744;2023-03-23T13:53:52;15;58.1
67893;DHT22;54688;52.376;16.744;2023-03-23T13:56:56;15;58.8
67893;DHT22;54688;52.376;16.744;2023-03-23T14:00:08;14.9;58.1
67893;DHT22;54688;52.376;16.744;2023-03-23T14:03:15;14.9;58
67893;DHT22;54688;52.376;16.744;2023-03-23T14:06:21;14.8;57.8
67893;DHT22;54688;52.376;16.744;2023-03-23T14:09:26;14.8;57.5
67893;DHT22;54688;52.376;16.744;2023-03-23T14:12:31;14.8;59
67893;DHT22;54688;52.376;16.744;2023-03-23T14:15:40;14.9;58.1
67893;DHT22;54688;52.376;16.744;2023-03-23T14:18:48;14.9;57.8
67893;DHT22;54688;52.376;16.744;2023-03-23T14:21:55;14.9;56.9
67893;DHT22;54688;52.376;16.744;2023-03-23T14:24:59;14.8;57.5
67893;DHT22;54688;52.376;16.744;2023-03-23T14:28:01;14.8;57.4
67893;DHT22;54688;52.376;16.744;2023-03-23T14:31:03;14.8;57.6
67893;DHT22;54688;52.376;16.744;2023-03-23T14:34:10;14.8;58.1
67893;DHT22;54688;52.376;16.744;2023-03-23T14:37:15;14.8;57.6
67893;DHT22;54688;52.376;16.744;2023-03-23T14:40:18;14.8;57.4
67893;DHT22;54688;52.376;16.744;2023-03-23T14:43:20;14.8;56.9
67893;DHT22;54688;52.376;16.744;2023-03-23T14:46:23;14.7;56.7
67893;DHT22;54688;52.376;16.744;2023-03-23T14:49:28;14.7;57
67893;DHT22;54688;52.376;16.744;2023-03-23T14:52:32;14.8;56.6
67893;DHT22;54688;52.376;16.744;2023-03-23T14:55:36;14.8;57.4
67893;DHT22;54688;52.376;16.744;2023-03-23T14:58:37;14.8;57.6
67893;DHT22;54688;52.376;16.744;2023-03-23T15:01:40;14.8;58.4
67893;DHT22;54688;52.376;16.744;2023-03-23T15:04:44;14.8;57.7
67893;DHT22;54688;52.376;16.744;2023-03-23T15:07:49;14.8;58.1
67893;DHT22;54688;52.376;16.744;2023-03-23T15:10:55;14.8;57.9
67893;DHT22;54688;52.376;16.744;2023-03-23T15:14:08;14.8;58
67893;DHT22;54688;52.376;16.744;2023-03-23T15:17:18;14.8;58.2
67893;DHT22;54688;52.376;16.744;2023-03-23T15:20:22;14.7;57.9
67893;DHT22;54688;52.376;16.744;2023-03-23T15:23:27;14.8;57.6
67893;DHT22;54688;52.376;16.744;2023-03-23T15:26:31;14.8;58.2
67893;DHT22;54688;52.376;16.744;2023-03-23T15:29:45;14.9;58.1
67893;DHT22;54688;52.376;16.744;2023-03-23T15:32:49;15.4;56.1
67893;DHT22;54688;52.376;16.744;2023-03-23T15:35:54;15.7;54.9
67893;DHT22;54688;52.376;16.744;2023-03-23T15:38:58;15.8;55.2
67893;DHT22;54688;52.376;16.744;2023-03-23T15:41:59;15.9;55.1
67893;DHT22;54688;52.376;16.744;2023-03-23T15:45:06;15.8;54.9
67893;DHT22;54688;52.376;16.744;2023-03-23T15:48:22;15.7;55.4
67893;DHT22;54688;52.376;16.744;2023-03-23T15:51:25;15.6;55.6
67893;DHT22;54688;52.376;16.744;2023-03-23T15:54:29;15.5;55.7
67893;DHT22;54688;52.376;16.744;2023-03-23T15:57:33;15.5;55.8
67893;DHT22;54688;52.376;16.744;2023-03-23T16:00:35;15.4;56
67893;DHT22;54688;52.376;16.744;2023-03-23T16:03:38;15.3;56.6
67893;DHT22;54688;52.376;16.744;2023-03-23T16:06:43;15.2;57
67893;DHT22;54688;52.376;16.744;2023-03-23T16:09:46;15.2;57.4
67893;DHT22;54688;52.376;16.744;2023-03-23T16:12:48;15.1;57.6
67893;DHT22;54688;52.376;16.744;2023-03-23T16:15:50;15;57.9
67893;DHT22;54688;52.376;16.744;2023-03-23T16:18:52;15;58.8
67893;DHT22;54688;52.376;16.744;2023-03-23T16:21:55;14.9;58.4
67893;DHT22;54688;52.376;16.744;2023-03-23T16:24:58;15;58.7
67893;DHT22;54688;52.376;16.744;2023-03-23T16:28:00;15.2;58.4
67893;DHT22;54688;52.376;16.744;2023-03-23T16:31:02;15.3;57.6
67893;DHT22;54688;52.376;16.744;2023-03-23T16:34:05;15.5;57.5
67893;DHT22;54688;52.376;16.744;2023-03-23T16:37:08;15.5;57.5
67893;DHT22;54688;52.376;16.744;2023-03-23T16:40:11;15.5;57.8
67893;DHT22;54688;52.376;16.744;2023-03-23T16:43:15;15.5;57.3
67893;DHT22;54688;52.376;16.744;2023-03-23T16:46:17;15.3;57.5
67893;DHT22;54688;52.376;16.744;2023-03-23T16:49:19;15.2;57.9
67893;DHT22;54688;52.376;16.744;2023-03-23T16:52:21;15.1;58.4
67893;DHT22;54688;52.376;16.744;2023-03-23T16:55:23;15;58.9
67893;DHT22;54688;52.376;16.744;2023-03-23T16:58:26;14.9;58.4
67893;DHT22;54688;52.376;16.744;2023-03-23T17:01:29;14.8;59
67893;DHT22;54688;52.376;16.744;2023-03-23T17:04:32;14.5;58.8
67893;DHT22;54688;52.376;16.744;2023-03-23T17:07:34;14.3;58.8
67893;DHT22;54688;52.376;16.744;2023-03-23T17:10:36;14;59.4
67893;DHT22;54688;52.376;16.744;2023-03-23T17:13:39;13.8;60.4
67893;DHT22;54688;52.376;16.744;2023-03-23T17:16:41;13.7;60.8
67893;DHT22;54688;52.376;16.744;2023-03-23T17:19:43;13.5;61
67893;DHT22;54688;52.376;16.744;2023-03-23T17:22:46;13.4;61.7
67893;DHT22;54688;52.376;16.744;2023-03-23T17:25:48;13.2;62.1
67893;DHT22;54688;52.376;16.744;2023-03-23T17:28:50;13.2;62.6
67893;DHT22;54688;52.376;16.744;2023-03-23T17:31:52;13.1;62.3
67893;DHT22;54688;52.376;16.744;2023-03-23T17:34:54;13.1;63.2
67893;DHT22;54688;52.376;16.744;2023-03-23T17:37:56;13;63.5
67893;DHT22;54688;52.376;16.744;2023-03-23T17:40:59;13;63.7
67893;DHT22;54688;52.376;16.744;2023-03-23T17:44:03;13;63.9
67893;DHT22;54688;52.376;16.744;2023-03-23T17:47:05;12.9;64.4
67893;DHT22;54688;52.376;16.744;2023-03-23T17:50:07;12.9;63.9
67893;DHT22;54688;52.376;16.744;2023-03-23T17:53:10;12.9;64
67893;DHT22;54688;52.376;16.744;2023-03-23T17:56:11;12.9;64.1
67893;DHT22;54688;52.376;16.744;2023-03-23T17:59:13;12.9;64.2
67893;DHT22;54688;52.376;16.744;2023-03-23T18:02:15;12.9;64.8
67893;DHT22;54688;52.376;16.744;2023-03-23T18:05:17;12.9;64.4
67893;DHT22;54688;52.376;16.744;2023-03-23T18:08:19;12.9;64.7
67893;DHT22;54688;52.376;16.744;2023-03-23T18:11:22;12.8;64.8
67893;DHT22;54688;52.376;16.744;2023-03-23T18:14:24;12.8;64.9
67893;DHT22;54688;52.376;16.744;2023-03-23T18:20:25;12.7;65.7
67893;DHT22;54688;52.376;16.744;2023-03-23T18:23:28;12.7;65.5
67893;DHT22;54688;52.376;16.744;2023-03-23T18:26:31;12.7;66.4
67893;DHT22;54688;52.376;16.744;2023-03-23T18:29:34;12.6;65.6
67893;DHT22;54688;52.376;16.744;2023-03-23T18:32:37;12.6;65.7
67893;DHT22;54688;52.376;16.744;2023-03-23T18:35:40;12.5;65.9
67893;DHT22;54688;52.376;16.744;2023-03-23T18:38:43;12.5;66.1
67893;DHT22;54688;52.376;16.744;2023-03-23T18:41:46;12.3;66.2
67893;DHT22;54688;52.376;16.744;2023-03-23T18:44:48;12.3;66.3
67893;DHT22;54688;52.376;16.744;2023-03-23T18:50:50;12.2;66.6
67893;DHT22;54688;52.376;16.744;2023-03-23T18:53:53;12.1;66.7
67893;DHT22;54688;52.376;16.744;2023-03-23T18:56:55;12;67
67893;DHT22;54688;52.376;16.744;2023-03-23T18:59:57;11.9;67.4
67893;DHT22;54688;52.376;16.744;2023-03-23T19:02:59;11.8;67.7
67893;DHT22;54688;52.376;16.744;2023-03-23T19:06:02;11.7;67.9
67893;DHT22;54688;52.376;16.744;2023-03-23T19:09:04;11.6;68.3
67893;DHT22;54688;52.376;16.744;2023-03-23T19:12:06;11.4;68.7
67893;DHT22;54688;52.376;16.744;2023-03-23T19:15:09;11.4;69.3
67893;DHT22;54688;52.376;16.744;2023-03-23T19:18:11;11.3;69.6
67893;DHT22;54688;52.376;16.744;2023-03-23T19:21:13;11.2;70
67893;DHT22;54688;52.376;16.744;2023-03-23T19:24:14;11.1;70.3
67893;DHT22;54688;52.376;16.744;2023-03-23T19:27:16;11;70.5
67893;DHT22;54688;52.376;16.744;2023-03-23T19:30:18;10.9;71.5
67893;DHT22;54688;52.376;16.744;2023-03-23T19:33:21;10.8;70.8
67893;DHT22;54688;52.376;16.744;2023-03-23T19:36:23;10.7;71
67893;DHT22;54688;52.376;16.744;2023-03-23T19:39:26;10.6;71.3
67893;DHT22;54688;52.376;16.744;2023-03-23T19:42:28;10.5;71.6
67893;DHT22;54688;52.376;16.744;2023-03-23T19:45:30;10.5;72.2
67893;DHT22;54688;52.376;16.744;2023-03-23T19:48:32;10.4;72.4
67893;DHT22;54688;52.376;16.744;2023-03-23T19:51:34;10.4;72.5
67893;DHT22;54688;52.376;16.744;2023-03-23T19:54:37;10.4;72.6
67893;DHT22;54688;52.376;16.744;2023-03-23T19:57:39;10.3;72.8
67893;DHT22;54688;52.376;16.744;2023-03-23T20:00:40;10.3;72.8
67893;DHT22;54688;52.376;16.744;2023-03-23T20:03:43;10.2;73.3
67893;DHT22;54688;52.376;16.744;2023-03-23T20:06:45;10.1;72.9
67893;DHT22;54688;52.376;16.744;2023-03-23T20:09:48;10.1;73.1
67893;DHT22;54688;52.376;16.744;2023-03-23T20:12:50;10;73.2
67893;DHT22;54688;52.376;16.744;2023-03-23T20:15:52;9.9;73.3
67893;DHT22;54688;52.376;16.744;2023-03-23T20:18:54;9.9;73.5
67893;DHT22;54688;52.376;16.744;2023-03-23T20:21:57;9.8;73.5
67893;DHT22;54688;52.376;16.744;2023-03-23T20:25:00;9.7;73.9
67893;DHT22;54688;52.376;16.744;2023-03-23T20:28:03;9.6;74.1
67893;DHT22;54688;52.376;16.744;2023-03-23T20:31:07;9.6;74.4